Aérodrome :
LOGIN :

S'inscrire | Disclaimer

   EN    FR    IT 

 










Légende :    VFR   VFR Marginal   IFR   IFR Intensif   IFR Très Intensif
Visi : 
Plafond : 
>= 8 km
>= 3000ft
5 à 8 km
1000 à 3000 ft
1500m à 5 km
500 à 1000 ft
800 à 1500m
200 à 500 ft
< 800m
< 200 ft
Symboles :   Orages  Brouillard  Fortes neiges  Fortes précipitations  Vent > 20 kt
SIGMETs :   Divers  Orages  Givrage  Turbulence  Onde Orograph.  Cendres Volcan.






- Altitude de l'aérodrome : 1325 ft
- Code IATA : EBU


LFMH - St-Etienne Boutheon

DERNIER METAR :
  • 171500Z AUTO 36007KT 330V030 9999 OVC028 06/02 Q1007 NOSIG

METARs EXPIRÉS :
  • 171430Z AUTO 36007KT 310V030 9999 OVC027 06/02 Q1007 NOSIG
  • 171400Z AUTO 36010KT 9999 BKN021 BKN029 OVC048 06/02 Q1006 NOSIG
  • 171330Z AUTO 36007KT 330V030 9999 BKN018 OVC028 06/03 Q1006 NOSIG
  • 171300Z AUTO 01006KT 340V040 9999 OVC015 05/03 Q1006 NOSIG
  • 171230Z AUTO 34005KT 310V010 9999 BKN014 BKN019 BKN024 05/02 Q1006 BECMG OVC028

TAF TAF LFMH
Valide du 17 à 15h jusqu'au 18 à 15h UTC


171400Z 1715/1815 36004KT 9999 OVC028
PROB40 1722/1809 0600 FG VV///
BECMG 1811/1813 SCT030
ATIS : +33 4 77 36 17 51



MET'MAP, la Météo Aéronautique d'un coup d'oeil ! - Copyright ORBIFLY Décembre 2007 - Disclaimer

ORBIFLY MET'MAP TEAM :

Programmation & Développement : Alexandra Zaïnal
Conception & Développement : Baudouin d'Aumeries
Co-Programmation & Développement : Marc-Olivier Méhu
Soutien technique & logistique : Manuel Goepfert

Contact : metmap@orbifly.com




SOURCES & CREDITS :

   NOAA